Terminal Aerodrome Forecast
Issued by NWS Cleveland, OH

Home | Current Version | Previous Version | Graphics & Text | Print | Product List | Glossary On
Versions: 1 2 3 4 5 6 7 8 9 10 11 12 13 14 15 16
000
FTUS41 KCLE 291943 AAA
TAFMFD
TAF AMD
KMFD 291943Z 2920/3018 21010G15KT P6SM BKN120
      TEMPO 2921/2922 -TSRA BKN035CB
     FM292200 20007KT P6SM SCT035
     FM300000 VRB03KT P6SM OVC035
     FM300400 VRB03KT P6SM SKC
     FM301400 29007KT P6SM SKC=

USA.gov is the U.S. government's official web portal to all federal, state and local government web resources and services.